Time;durP1;ratioP1;P1;durP2;ratioP2;P2;SDS_P1;SDS_P2;PMS_P1;PMS_P2;Temp;Humidity;BMP_temperature;BMP_pressure;BME280_temperature;BME280_humidity;BME280_pressure;Samples;Min_cycle;Max_cycle;Signal;HPM_P1;HPM_P2
2023/01/22 00:01:23;;;;;;;24.50;10.40;;;;;;;-1.39;100.00;99787.24;106770;1277;1003366;-74
2023/01/22 00:03:53;;;;;;;26.10;10.60;;;;;;;-1.40;100.00;99787.98;107508;1277;22655;-74
2023/01/22 00:06:22;;;;;;;28.60;10.00;;;;;;;-1.40;100.00;99788.34;107420;1277;23917;-74
2023/01/22 00:09:22;;;;;;;28.70;11.00;;;;;;;-1.40;100.00;99785.33;107483;1277;22538;-74
2023/01/22 00:11:51;;;;;;;27.20;10.90;;;;;;;-1.39;100.00;99779.45;107546;1276;22984;-75
2023/01/22 00:14:24;;;;;;;28.20;10.50;;;;;;;-1.39;100.00;99779.09;106901;1276;1002904;-74
2023/01/22 00:17:28;;;;;;;29.00;11.80;;;;;;;-1.37;100.00;99781.23;107808;1276;22537;-74
2023/01/22 00:19:55;;;;;;;32.10;12.40;;;;;;;-1.34;100.00;99784.93;107699;1276;22544;-75
2023/01/22 00:22:23;;;;;;;34.90;13.80;;;;;;;-1.30;100.00;99784.35;107796;1276;22543;-74
2023/01/22 00:24:50;;;;;;;25.50;10.80;;;;;;;-1.27;100.00;99786.83;107711;1276;24271;-74
2023/01/22 00:28:00;;;;;;;23.80;9.60;;;;;;;-1.27;100.00;99793.36;107682;1276;23887;-74
2023/01/22 00:30:30;;;;;;;21.40;8.40;;;;;;;-1.29;100.00;99790.13;107547;1276;25442;-74
2023/01/22 00:33:19;;;;;;;25.70;9.70;;;;;;;-1.31;100.00;99792.19;107066;1276;1003200;-75
2023/01/22 00:36:09;;;;;;;32.10;12.30;;;;;;;-1.33;100.00;99795.83;107769;1276;22523;-73
2023/01/22 00:43:23;;;;;;;34.80;13.30;;;;;;;-1.31;100.00;99770.08;107738;1276;22736;-74
2023/01/22 00:45:59;;;;;;;32.00;11.90;;;;;;;-1.30;100.00;99784.14;107728;1276;24326;-74
2023/01/22 00:49:29;;;;;;;26.20;9.80;;;;;;;-1.30;100.00;99773.89;107711;1276;22667;-74
2023/01/22 00:52:04;;;;;;;23.20;9.50;;;;;;;-1.30;100.00;99781.18;107457;1276;22646;-74
2023/01/22 00:54:34;;;;;;;26.90;10.90;;;;;;;-1.30;100.00;99786.13;107837;1276;22740;-74
2023/01/22 00:57:05;;;;;;;23.10;9.60;;;;;;;-1.31;100.00;99776.13;107808;1276;24244;-72
2023/01/22 00:59:57;;;;;;;30.30;11.40;;;;;;;-1.32;100.00;99768.18;107699;1276;22696;-74
2023/01/22 01:02:26;;;;;;;24.30;10.10;;;;;;;-1.31;100.00;99775.55;107557;1276;25431;-74
2023/01/22 01:04:55;;;;;;;25.30;10.40;;;;;;;-1.31;100.00;99771.34;107976;1276;22865;-74
2023/01/22 01:07:22;;;;;;;27.00;9.10;;;;;;;-1.30;100.00;99772.88;107617;1276;22513;-74
2023/01/22 01:09:50;;;;;;;33.00;11.50;;;;;;;-1.28;100.00;99771.67;106880;1276;1003277;-74
2023/01/22 01:12:18;;;;;;;28.80;11.40;;;;;;;-1.26;100.00;99761.46;107459;1276;25496;-74
2023/01/22 01:14:46;;;;;;;27.60;10.80;;;;;;;-1.26;100.00;99759.34;107596;1276;22649;-75
2023/01/22 01:17:23;;;;;;;24.90;10.20;;;;;;;-1.26;100.00;99757.73;107628;1276;22561;-75
2023/01/22 01:21:08;;;;;;;24.80;8.90;;;;;;;-1.26;100.00;99748.85;107631;1276;25294;-75
2023/01/22 01:23:41;;;;;;;25.80;10.60;;;;;;;-1.25;100.00;99711.69;107655;1276;22500;-74
2023/01/22 01:26:11;;;;;;;28.90;11.60;;;;;;;-1.24;100.00;99735.16;107712;1276;22467;-75
2023/01/22 01:28:39;;;;;;;27.30;9.70;;;;;;;-1.23;100.00;99734.73;107815;1276;22528;-73
2023/01/22 01:31:24;;;;;;;18.80;8.10;;;;;;;-1.23;100.00;99721.08;107781;1276;22538;-75
2023/01/22 01:33:56;;;;;;;25.70;8.80;;;;;;;-1.22;100.00;99727.73;107806;1276;22813;-75
2023/01/22 01:36:24;;;;;;;25.70;9.70;;;;;;;-1.20;100.00;99726.02;107512;1276;22549;-74
2023/01/22 01:39:11;;;;;;;20.70;7.30;;;;;;;-1.20;100.00;99704.95;107507;1276;22474;-75
2023/01/22 01:41:38;;;;;;;17.30;7.10;;;;;;;-1.19;100.00;99713.38;107647;1276;22587;-75
2023/01/22 01:44:16;;;;;;;20.50;7.70;;;;;;;-1.18;100.00;99703.23;107007;1276;1002947;-75
2023/01/22 01:46:46;;;;;;;20.70;8.00;;;;;;;-1.16;100.00;99686.67;107509;1276;22626;-74
2023/01/22 01:49:39;;;;;;;29.20;10.30;;;;;;;-1.14;100.00;99681.39;106968;1276;1003249;-73
2023/01/22 01:52:11;;;;;;;27.10;9.90;;;;;;;-1.11;100.00;99651.70;107651;1276;22580;-74
2023/01/22 01:54:39;;;;;;;27.80;11.50;;;;;;;-1.10;100.00;99651.05;107705;1276;22491;-75
2023/01/22 01:57:11;;;;;;;27.50;10.60;;;;;;;-1.08;100.00;99640.10;107681;1276;25240;-75
2023/01/22 01:59:39;;;;;;;24.60;9.10;;;;;;;-1.05;100.00;99629.44;106953;1276;1003070;-75
2023/01/22 02:02:06;;;;;;;24.40;9.50;;;;;;;-1.02;100.00;99625.55;107435;1276;22539;-76
2023/01/22 02:04:33;;;;;;;26.90;10.90;;;;;;;-0.99;100.00;99619.81;107629;1276;24443;-74
2023/01/22 02:07:02;;;;;;;22.10;9.20;;;;;;;-0.94;100.00;99610.87;106843;1276;1002984;-75
2023/01/22 02:09:31;;;;;;;24.40;9.00;;;;;;;-0.91;100.00;99605.86;107436;1276;22774;-74
2023/01/22 02:11:58;;;;;;;22.40;8.60;;;;;;;-0.89;100.00;99599.90;107558;1276;22522;-75
2023/01/22 02:14:38;;;;;;;27.90;11.20;;;;;;;-0.88;100.00;99591.16;107602;1276;22599;-73
2023/01/22 02:17:15;;;;;;;28.00;10.10;;;;;;;-0.88;100.00;99569.53;107622;1276;22731;-75
2023/01/22 02:19:43;;;;;;;28.30;10.60;;;;;;;-0.86;100.00;99554.54;107436;1276;23751;-75
2023/01/22 02:22:14;;;;;;;30.00;12.00;;;;;;;-0.85;100.00;99556.20;107603;1276;22530;-76
